<?xml version="1.0" encoding="UTF-8" standalone="no" ?>
<gpx xmlns="http://www.topografix.com/GPX/1/1" xmlns:xsi="http://www.w3.org/2001/XMLSchema-instance" xsi:schemaLocation="http://www.topografix.com/GPX/1/1 http://www.topografix.com/GPX/1/1/gpx.xsd" version="1.1" creator="VisuGPX - https://www.visugpx.com">
  <metadata>
    <name>11101954-Marche 20km 2020 def</name>
    <desc><![CDATA[
Marche 21 km du lundi de Pâques du Gillonnay Cyclo Club]]></desc>
  </metadata>
  <trk>
    <name><![CDATA[11101954-Marche 20km 2020 def]]></name>
    <trkseg>
      <trkpt lat="45.39261" lon="5.29652">
        <ele>383</ele>
        <time>2020-03-09T09:23:38Z</time>
      </trkpt>
      <trkpt lat="45.39293" lon="5.29649">
        <ele>384</ele>
        <time>2020-03-09T09:24:04Z</time>
      </trkpt>
      <trkpt lat="45.39379" lon="5.29636">
        <ele>387</ele>
        <time>2020-03-09T09:25:13Z</time>
      </trkpt>
      <trkpt lat="45.39482" lon="5.29611">
        <ele>393</ele>
        <time>2020-03-09T09:26:37Z</time>
      </trkpt>
      <trkpt lat="45.39478" lon="5.29568">
        <ele>392</ele>
        <time>2020-03-09T09:27:01Z</time>
      </trkpt>
      <trkpt lat="45.39476" lon="5.29447">
        <ele>393</ele>
        <time>2020-03-09T09:28:09Z</time>
      </trkpt>
      <trkpt lat="45.39465" lon="5.29268">
        <ele>397</ele>
        <time>2020-03-09T09:29:50Z</time>
      </trkpt>
      <trkpt lat="45.3945" lon="5.29218">
        <ele>398</ele>
        <time>2020-03-09T09:30:21Z</time>
      </trkpt>
      <trkpt lat="45.39459" lon="5.29204">
        <ele>399</ele>
        <time>2020-03-09T09:30:31Z</time>
      </trkpt>
      <trkpt lat="45.39475" lon="5.29197">
        <ele>401</ele>
        <time>2020-03-09T09:30:45Z</time>
      </trkpt>
      <trkpt lat="45.3952" lon="5.29209">
        <ele>405</ele>
        <time>2020-03-09T09:31:21Z</time>
      </trkpt>
      <trkpt lat="45.39529" lon="5.29209">
        <ele>406</ele>
        <time>2020-03-09T09:31:29Z</time>
      </trkpt>
      <trkpt lat="45.39513" lon="5.2913">
        <ele>408</ele>
        <time>2020-03-09T09:32:15Z</time>
      </trkpt>
      <trkpt lat="45.39516" lon="5.29104">
        <ele>409</ele>
        <time>2020-03-09T09:32:30Z</time>
      </trkpt>
      <trkpt lat="45.39527" lon="5.29048">
        <ele>411</ele>
        <time>2020-03-09T09:33:02Z</time>
      </trkpt>
      <trkpt lat="45.39538" lon="5.29029">
        <ele>412</ele>
        <time>2020-03-09T09:33:16Z</time>
      </trkpt>
      <trkpt lat="45.39555" lon="5.29023">
        <ele>414</ele>
        <time>2020-03-09T09:33:30Z</time>
      </trkpt>
      <trkpt lat="45.39578" lon="5.29019">
        <ele>416</ele>
        <time>2020-03-09T09:33:49Z</time>
      </trkpt>
      <trkpt lat="45.39605" lon="5.29001">
        <ele>419</ele>
        <time>2020-03-09T09:34:13Z</time>
      </trkpt>
      <trkpt lat="45.39607" lon="5.28981">
        <ele>420</ele>
        <time>2020-03-09T09:34:24Z</time>
      </trkpt>
      <trkpt lat="45.396" lon="5.28936">
        <ele>421</ele>
        <time>2020-03-09T09:34:50Z</time>
      </trkpt>
      <trkpt lat="45.39602" lon="5.28906">
        <ele>422</ele>
        <time>2020-03-09T09:35:07Z</time>
      </trkpt>
      <trkpt lat="45.39606" lon="5.28882">
        <ele>422</ele>
        <time>2020-03-09T09:35:21Z</time>
      </trkpt>
      <trkpt lat="45.39614" lon="5.28871">
        <ele>423</ele>
        <time>2020-03-09T09:35:30Z</time>
      </trkpt>
      <trkpt lat="45.3959" lon="5.28863">
        <ele>419</ele>
        <time>2020-03-09T09:35:49Z</time>
      </trkpt>
      <trkpt lat="45.39571" lon="5.28869">
        <ele>417</ele>
        <time>2020-03-09T09:36:05Z</time>
      </trkpt>
      <trkpt lat="45.39566" lon="5.28875">
        <ele>416</ele>
        <time>2020-03-09T09:36:10Z</time>
      </trkpt>
      <trkpt lat="45.39563" lon="5.28864">
        <ele>416</ele>
        <time>2020-03-09T09:36:17Z</time>
      </trkpt>
      <trkpt lat="45.39573" lon="5.28791">
        <ele>413</ele>
        <time>2020-03-09T09:36:59Z</time>
      </trkpt>
      <trkpt lat="45.39583" lon="5.28697">
        <ele>412</ele>
        <time>2020-03-09T09:37:52Z</time>
      </trkpt>
      <trkpt lat="45.39589" lon="5.28616">
        <ele>412</ele>
        <time>2020-03-09T09:38:38Z</time>
      </trkpt>
      <trkpt lat="45.3959" lon="5.28592">
        <ele>412</ele>
        <time>2020-03-09T09:38:51Z</time>
      </trkpt>
      <trkpt lat="45.39597" lon="5.28564">
        <ele>414</ele>
        <time>2020-03-09T09:39:08Z</time>
      </trkpt>
      <trkpt lat="45.39605" lon="5.28545">
        <ele>417</ele>
        <time>2020-03-09T09:39:21Z</time>
      </trkpt>
      <trkpt lat="45.39617" lon="5.28536">
        <ele>419</ele>
        <time>2020-03-09T09:39:31Z</time>
      </trkpt>
      <trkpt lat="45.39633" lon="5.28528">
        <ele>423</ele>
        <time>2020-03-09T09:39:45Z</time>
      </trkpt>
      <trkpt lat="45.39639" lon="5.28517">
        <ele>424</ele>
        <time>2020-03-09T09:39:53Z</time>
      </trkpt>
      <trkpt lat="45.39641" lon="5.28507">
        <ele>425</ele>
        <time>2020-03-09T09:39:59Z</time>
      </trkpt>
      <trkpt lat="45.39628" lon="5.28429">
        <ele>427</ele>
        <time>2020-03-09T09:40:44Z</time>
      </trkpt>
      <trkpt lat="45.39626" lon="5.28394">
        <ele>428</ele>
        <time>2020-03-09T09:41:03Z</time>
      </trkpt>
      <trkpt lat="45.39618" lon="5.28352">
        <ele>428</ele>
        <time>2020-03-09T09:41:28Z</time>
      </trkpt>
      <trkpt lat="45.39609" lon="5.28307">
        <ele>427</ele>
        <time>2020-03-09T09:41:54Z</time>
      </trkpt>
      <trkpt lat="45.39596" lon="5.2825">
        <ele>426</ele>
        <time>2020-03-09T09:42:28Z</time>
      </trkpt>
      <trkpt lat="45.3959" lon="5.28222">
        <ele>425</ele>
        <time>2020-03-09T09:42:44Z</time>
      </trkpt>
      <trkpt lat="45.3959" lon="5.28205">
        <ele>426</ele>
        <time>2020-03-09T09:42:54Z</time>
      </trkpt>
      <trkpt lat="45.39593" lon="5.28192">
        <ele>427</ele>
        <time>2020-03-09T09:43:02Z</time>
      </trkpt>
      <trkpt lat="45.396" lon="5.28183">
        <ele>429</ele>
        <time>2020-03-09T09:43:09Z</time>
      </trkpt>
      <trkpt lat="45.39608" lon="5.28181">
        <ele>430</ele>
        <time>2020-03-09T09:43:16Z</time>
      </trkpt>
      <trkpt lat="45.39615" lon="5.28174">
        <ele>432</ele>
        <time>2020-03-09T09:43:23Z</time>
      </trkpt>
      <trkpt lat="45.39618" lon="5.28161">
        <ele>432</ele>
        <time>2020-03-09T09:43:30Z</time>
      </trkpt>
      <trkpt lat="45.39621" lon="5.2813">
        <ele>433</ele>
        <time>2020-03-09T09:43:48Z</time>
      </trkpt>
      <trkpt lat="45.39643" lon="5.28126">
        <ele>437</ele>
        <time>2020-03-09T09:44:06Z</time>
      </trkpt>
      <trkpt lat="45.39668" lon="5.28124">
        <ele>441</ele>
        <time>2020-03-09T09:44:26Z</time>
      </trkpt>
      <trkpt lat="45.39686" lon="5.28128">
        <ele>443</ele>
        <time>2020-03-09T09:44:40Z</time>
      </trkpt>
      <trkpt lat="45.39692" lon="5.28136">
        <ele>443</ele>
        <time>2020-03-09T09:44:47Z</time>
      </trkpt>
      <trkpt lat="45.39694" lon="5.28146">
        <ele>444</ele>
        <time>2020-03-09T09:44:53Z</time>
      </trkpt>
      <trkpt lat="45.39694" lon="5.28166">
        <ele>444</ele>
        <time>2020-03-09T09:45:04Z</time>
      </trkpt>
      <trkpt lat="45.3969" lon="5.28189">
        <ele>443</ele>
        <time>2020-03-09T09:45:17Z</time>
      </trkpt>
      <trkpt lat="45.39691" lon="5.28204">
        <ele>443</ele>
        <time>2020-03-09T09:45:26Z</time>
      </trkpt>
      <trkpt lat="45.39695" lon="5.28222">
        <ele>444</ele>
        <time>2020-03-09T09:45:36Z</time>
      </trkpt>
      <trkpt lat="45.39702" lon="5.28233">
        <ele>444</ele>
        <time>2020-03-09T09:45:45Z</time>
      </trkpt>
      <trkpt lat="45.39718" lon="5.28247">
        <ele>446</ele>
        <time>2020-03-09T09:46:00Z</time>
      </trkpt>
      <trkpt lat="45.39738" lon="5.28254">
        <ele>448</ele>
        <time>2020-03-09T09:46:16Z</time>
      </trkpt>
      <trkpt lat="45.39765" lon="5.28258">
        <ele>451</ele>
        <time>2020-03-09T09:46:38Z</time>
      </trkpt>
      <trkpt lat="45.39802" lon="5.28257">
        <ele>457</ele>
        <time>2020-03-09T09:47:08Z</time>
      </trkpt>
      <trkpt lat="45.39825" lon="5.2826">
        <ele>460</ele>
        <time>2020-03-09T09:47:26Z</time>
      </trkpt>
      <trkpt lat="45.39873" lon="5.28276">
        <ele>467</ele>
        <time>2020-03-09T09:48:05Z</time>
      </trkpt>
      <trkpt lat="45.39896" lon="5.28286">
        <ele>471</ele>
        <time>2020-03-09T09:48:25Z</time>
      </trkpt>
      <trkpt lat="45.39914" lon="5.28298">
        <ele>474</ele>
        <time>2020-03-09T09:48:41Z</time>
      </trkpt>
      <trkpt lat="45.39925" lon="5.28267">
        <ele>474</ele>
        <time>2020-03-09T09:49:00Z</time>
      </trkpt>
      <trkpt lat="45.39948" lon="5.28196">
        <ele>473</ele>
        <time>2020-03-09T09:49:44Z</time>
      </trkpt>
      <trkpt lat="45.39975" lon="5.28111">
        <ele>472</ele>
        <time>2020-03-09T09:50:37Z</time>
      </trkpt>
      <trkpt lat="45.39997" lon="5.28066">
        <ele>471</ele>
        <time>2020-03-09T09:51:07Z</time>
      </trkpt>
      <trkpt lat="45.39996" lon="5.27986">
        <ele>465</ele>
        <time>2020-03-09T09:51:52Z</time>
      </trkpt>
      <trkpt lat="45.40001" lon="5.27958">
        <ele>462</ele>
        <time>2020-03-09T09:52:09Z</time>
      </trkpt>
      <trkpt lat="45.40067" lon="5.27976">
        <ele>457</ele>
        <time>2020-03-09T09:53:02Z</time>
      </trkpt>
      <trkpt lat="45.40083" lon="5.27979">
        <ele>456</ele>
        <time>2020-03-09T09:53:15Z</time>
      </trkpt>
      <trkpt lat="45.40097" lon="5.27971">
        <ele>457</ele>
        <time>2020-03-09T09:53:27Z</time>
      </trkpt>
      <trkpt lat="45.40106" lon="5.27941">
        <ele>456</ele>
        <time>2020-03-09T09:53:46Z</time>
      </trkpt>
      <trkpt lat="45.40115" lon="5.27891">
        <ele>456</ele>
        <time>2020-03-09T09:54:15Z</time>
      </trkpt>
      <trkpt lat="45.40147" lon="5.27826">
        <ele>462</ele>
        <time>2020-03-09T09:54:59Z</time>
      </trkpt>
      <trkpt lat="45.40169" lon="5.27787">
        <ele>464</ele>
        <time>2020-03-09T09:55:28Z</time>
      </trkpt>
      <trkpt lat="45.4019" lon="5.27758">
        <ele>466</ele>
        <time>2020-03-09T09:55:51Z</time>
      </trkpt>
      <trkpt lat="45.40211" lon="5.27737">
        <ele>469</ele>
        <time>2020-03-09T09:56:12Z</time>
      </trkpt>
      <trkpt lat="45.40244" lon="5.27717">
        <ele>475</ele>
        <time>2020-03-09T09:56:40Z</time>
      </trkpt>
      <trkpt lat="45.40267" lon="5.27698">
        <ele>479</ele>
        <time>2020-03-09T09:57:02Z</time>
      </trkpt>
      <trkpt lat="45.40299" lon="5.27653">
        <ele>482</ele>
        <time>2020-03-09T09:57:38Z</time>
      </trkpt>
      <trkpt lat="45.40391" lon="5.27506">
        <ele>488</ele>
        <time>2020-03-09T09:59:28Z</time>
      </trkpt>
      <trkpt lat="45.4041" lon="5.27485">
        <ele>489</ele>
        <time>2020-03-09T09:59:47Z</time>
      </trkpt>
      <trkpt lat="45.40428" lon="5.27473">
        <ele>492</ele>
        <time>2020-03-09T10:00:03Z</time>
      </trkpt>
      <trkpt lat="45.40442" lon="5.27469">
        <ele>495</ele>
        <time>2020-03-09T10:00:15Z</time>
      </trkpt>
      <trkpt lat="45.40444" lon="5.27453">
        <ele>495</ele>
        <time>2020-03-09T10:00:24Z</time>
      </trkpt>
      <trkpt lat="45.4044" lon="5.27398">
        <ele>493</ele>
        <time>2020-03-09T10:00:55Z</time>
      </trkpt>
      <trkpt lat="45.40511" lon="5.27373">
        <ele>499</ele>
        <time>2020-03-09T10:01:54Z</time>
      </trkpt>
      <trkpt lat="45.40527" lon="5.2736">
        <ele>500</ele>
        <time>2020-03-09T10:02:08Z</time>
      </trkpt>
      <trkpt lat="45.40557" lon="5.27343">
        <ele>501</ele>
        <time>2020-03-09T10:02:34Z</time>
      </trkpt>
      <trkpt lat="45.40575" lon="5.27341">
        <ele>503</ele>
        <time>2020-03-09T10:02:49Z</time>
      </trkpt>
      <trkpt lat="45.40597" lon="5.27343">
        <ele>505</ele>
        <time>2020-03-09T10:03:06Z</time>
      </trkpt>
      <trkpt lat="45.40629" lon="5.2735">
        <ele>508</ele>
        <time>2020-03-09T10:03:32Z</time>
      </trkpt>
      <trkpt lat="45.40655" lon="5.27353">
        <ele>511</ele>
        <time>2020-03-09T10:03:53Z</time>
      </trkpt>
      <trkpt lat="45.40788" lon="5.27386">
        <ele>528</ele>
        <time>2020-03-09T10:05:41Z</time>
      </trkpt>
      <trkpt lat="45.408" lon="5.27387">
        <ele>529</ele>
        <time>2020-03-09T10:05:51Z</time>
      </trkpt>
      <trkpt lat="45.40903" lon="5.27367">
        <ele>534</ele>
        <time>2020-03-09T10:07:14Z</time>
      </trkpt>
      <trkpt lat="45.40903" lon="5.27367">
        <ele>534</ele>
        <time>2020-03-09T10:07:14Z</time>
      </trkpt>
      <trkpt lat="45.40951" lon="5.27239">
        <ele>521</ele>
        <time>2020-03-09T10:08:36Z</time>
      </trkpt>
      <trkpt lat="45.40951" lon="5.27239">
        <ele>521</ele>
        <time>2020-03-09T10:08:36Z</time>
      </trkpt>
      <trkpt lat="45.41" lon="5.27109">
        <ele>518</ele>
        <time>2020-03-09T10:09:59Z</time>
      </trkpt>
      <trkpt lat="45.41" lon="5.27109">
        <ele>518</ele>
        <time>2020-03-09T10:09:59Z</time>
      </trkpt>
      <trkpt lat="45.41049" lon="5.27052">
        <ele>507</ele>
        <time>2020-03-09T10:10:49Z</time>
      </trkpt>
      <trkpt lat="45.41049" lon="5.27052">
        <ele>507</ele>
        <time>2020-03-09T10:10:49Z</time>
      </trkpt>
      <trkpt lat="45.4108" lon="5.26814">
        <ele>493</ele>
        <time>2020-03-09T10:13:05Z</time>
      </trkpt>
      <trkpt lat="45.4108" lon="5.26814">
        <ele>493</ele>
        <time>2020-03-09T10:13:05Z</time>
      </trkpt>
      <trkpt lat="45.41114" lon="5.26889">
        <ele>491</ele>
        <time>2020-03-09T10:13:56Z</time>
      </trkpt>
      <trkpt lat="45.41105" lon="5.26893">
        <ele>494</ele>
        <time>2020-03-09T10:14:03Z</time>
      </trkpt>
      <trkpt lat="45.41124" lon="5.2696">
        <ele>490</ele>
        <time>2020-03-09T10:14:44Z</time>
      </trkpt>
      <trkpt lat="45.41135" lon="5.26995">
        <ele>487</ele>
        <time>2020-03-09T10:15:05Z</time>
      </trkpt>
      <trkpt lat="45.41155" lon="5.27046">
        <ele>484</ele>
        <time>2020-03-09T10:15:38Z</time>
      </trkpt>
      <trkpt lat="45.41164" lon="5.27053">
        <ele>482</ele>
        <time>2020-03-09T10:15:46Z</time>
      </trkpt>
      <trkpt lat="45.41176" lon="5.27055">
        <ele>484</ele>
        <time>2020-03-09T10:15:56Z</time>
      </trkpt>
      <trkpt lat="45.41184" lon="5.27052">
        <ele>486</ele>
        <time>2020-03-09T10:16:03Z</time>
      </trkpt>
      <trkpt lat="45.4119" lon="5.27043">
        <ele>487</ele>
        <time>2020-03-09T10:16:10Z</time>
      </trkpt>
      <trkpt lat="45.41198" lon="5.27011">
        <ele>487</ele>
        <time>2020-03-09T10:16:29Z</time>
      </trkpt>
      <trkpt lat="45.41205" lon="5.26974">
        <ele>487</ele>
        <time>2020-03-09T10:16:50Z</time>
      </trkpt>
      <trkpt lat="45.41209" lon="5.26953">
        <ele>487</ele>
        <time>2020-03-09T10:17:02Z</time>
      </trkpt>
      <trkpt lat="45.4121" lon="5.26935">
        <ele>486</ele>
        <time>2020-03-09T10:17:13Z</time>
      </trkpt>
      <trkpt lat="45.41202" lon="5.2689">
        <ele>483</ele>
        <time>2020-03-09T10:17:39Z</time>
      </trkpt>
      <trkpt lat="45.41199" lon="5.26854">
        <ele>482</ele>
        <time>2020-03-09T10:17:59Z</time>
      </trkpt>
      <trkpt lat="45.41207" lon="5.26763">
        <ele>478</ele>
        <time>2020-03-09T10:18:51Z</time>
      </trkpt>
      <trkpt lat="45.41207" lon="5.26727">
        <ele>475</ele>
        <time>2020-03-09T10:19:11Z</time>
      </trkpt>
      <trkpt lat="45.41197" lon="5.2662">
        <ele>466</ele>
        <time>2020-03-09T10:20:12Z</time>
      </trkpt>
      <trkpt lat="45.41196" lon="5.266">
        <ele>465</ele>
        <time>2020-03-09T10:20:23Z</time>
      </trkpt>
      <trkpt lat="45.41199" lon="5.26592">
        <ele>465</ele>
        <time>2020-03-09T10:20:28Z</time>
      </trkpt>
      <trkpt lat="45.41195" lon="5.2659">
        <ele>464</ele>
        <time>2020-03-09T10:20:31Z</time>
      </trkpt>
      <trkpt lat="45.41315" lon="5.26332">
        <ele>476</ele>
        <time>2020-03-09T10:23:25Z</time>
      </trkpt>
      <trkpt lat="45.41315" lon="5.26332">
        <ele>476</ele>
        <time>2020-03-09T10:23:25Z</time>
      </trkpt>
      <trkpt lat="45.41346" lon="5.26252">
        <ele>473</ele>
        <time>2020-03-09T10:24:17Z</time>
      </trkpt>
      <trkpt lat="45.41346" lon="5.26252">
        <ele>473</ele>
        <time>2020-03-09T10:24:17Z</time>
      </trkpt>
      <trkpt lat="45.4139" lon="5.26269">
        <ele>480</ele>
        <time>2020-03-09T10:24:53Z</time>
      </trkpt>
      <trkpt lat="45.4139" lon="5.26269">
        <ele>480</ele>
        <time>2020-03-09T10:24:53Z</time>
      </trkpt>
      <trkpt lat="45.41409" lon="5.26543">
        <ele>518</ele>
        <time>2020-03-09T10:27:28Z</time>
      </trkpt>
      <trkpt lat="45.41409" lon="5.26543">
        <ele>518</ele>
        <time>2020-03-09T10:27:28Z</time>
      </trkpt>
      <trkpt lat="45.4138" lon="5.26644">
        <ele>521</ele>
        <time>2020-03-09T10:28:29Z</time>
      </trkpt>
      <trkpt lat="45.4138" lon="5.26644">
        <ele>521</ele>
        <time>2020-03-09T10:28:29Z</time>
      </trkpt>
      <trkpt lat="45.41366" lon="5.26877">
        <ele>542</ele>
        <time>2020-03-09T10:30:41Z</time>
      </trkpt>
      <trkpt lat="45.41366" lon="5.26877">
        <ele>542</ele>
        <time>2020-03-09T10:30:41Z</time>
      </trkpt>
      <trkpt lat="45.41329" lon="5.27275">
        <ele>556</ele>
        <time>2020-03-09T10:34:26Z</time>
      </trkpt>
      <trkpt lat="45.41329" lon="5.27275">
        <ele>556</ele>
        <time>2020-03-09T10:34:26Z</time>
      </trkpt>
      <trkpt lat="45.41285" lon="5.27326">
        <ele>548</ele>
        <time>2020-03-09T10:35:12Z</time>
      </trkpt>
      <trkpt lat="45.41285" lon="5.27326">
        <ele>548</ele>
        <time>2020-03-09T10:35:12Z</time>
      </trkpt>
      <trkpt lat="45.41232" lon="5.27389">
        <ele>539</ele>
        <time>2020-03-09T10:36:07Z</time>
      </trkpt>
      <trkpt lat="45.41232" lon="5.27389">
        <ele>539</ele>
        <time>2020-03-09T10:36:07Z</time>
      </trkpt>
      <trkpt lat="45.41163" lon="5.27438">
        <ele>520</ele>
        <time>2020-03-09T10:37:09Z</time>
      </trkpt>
      <trkpt lat="45.41163" lon="5.27438">
        <ele>520</ele>
        <time>2020-03-09T10:37:09Z</time>
      </trkpt>
      <trkpt lat="45.41071" lon="5.27559">
        <ele>505</ele>
        <time>2020-03-09T10:38:49Z</time>
      </trkpt>
      <trkpt lat="45.41071" lon="5.27559">
        <ele>505</ele>
        <time>2020-03-09T10:38:49Z</time>
      </trkpt>
      <trkpt lat="45.41028" lon="5.27712">
        <ele>510</ele>
        <time>2020-03-09T10:40:22Z</time>
      </trkpt>
      <trkpt lat="45.41065" lon="5.27802">
        <ele>516</ele>
        <time>2020-03-09T10:41:20Z</time>
      </trkpt>
      <trkpt lat="45.41049" lon="5.27827">
        <ele>514</ele>
        <time>2020-03-09T10:41:39Z</time>
      </trkpt>
      <trkpt lat="45.41008" lon="5.27821">
        <ele>512</ele>
        <time>2020-03-09T10:42:12Z</time>
      </trkpt>
      <trkpt lat="45.40981" lon="5.27831">
        <ele>516</ele>
        <time>2020-03-09T10:42:35Z</time>
      </trkpt>
      <trkpt lat="45.40913" lon="5.27882">
        <ele>528</ele>
        <time>2020-03-09T10:43:36Z</time>
      </trkpt>
      <trkpt lat="45.40851" lon="5.27946">
        <ele>531</ele>
        <time>2020-03-09T10:44:37Z</time>
      </trkpt>
      <trkpt lat="45.40842" lon="5.27967">
        <ele>530</ele>
        <time>2020-03-09T10:44:51Z</time>
      </trkpt>
      <trkpt lat="45.40821" lon="5.28025">
        <ele>529</ele>
        <time>2020-03-09T10:45:28Z</time>
      </trkpt>
      <trkpt lat="45.40793" lon="5.28083">
        <ele>533</ele>
        <time>2020-03-09T10:46:08Z</time>
      </trkpt>
      <trkpt lat="45.40774" lon="5.2812">
        <ele>533</ele>
        <time>2020-03-09T10:46:33Z</time>
      </trkpt>
      <trkpt lat="45.40776" lon="5.28122">
        <ele>533</ele>
        <time>2020-03-09T10:46:35Z</time>
      </trkpt>
      <trkpt lat="45.40772" lon="5.28206">
        <ele>530</ele>
        <time>2020-03-09T10:47:23Z</time>
      </trkpt>
      <trkpt lat="45.40772" lon="5.28206">
        <ele>530</ele>
        <time>2020-03-09T10:47:23Z</time>
      </trkpt>
      <trkpt lat="45.40805" lon="5.28214">
        <ele>532</ele>
        <time>2020-03-09T10:47:49Z</time>
      </trkpt>
      <trkpt lat="45.40805" lon="5.28214">
        <ele>532</ele>
        <time>2020-03-09T10:47:49Z</time>
      </trkpt>
      <trkpt lat="45.40813" lon="5.28389">
        <ele>537</ele>
        <time>2020-03-09T10:49:28Z</time>
      </trkpt>
      <trkpt lat="45.40808" lon="5.28395">
        <ele>537</ele>
        <time>2020-03-09T10:49:33Z</time>
      </trkpt>
      <trkpt lat="45.40815" lon="5.28405">
        <ele>537</ele>
        <time>2020-03-09T10:49:41Z</time>
      </trkpt>
      <trkpt lat="45.40824" lon="5.28437">
        <ele>540</ele>
        <time>2020-03-09T10:50:00Z</time>
      </trkpt>
      <trkpt lat="45.40838" lon="5.28614">
        <ele>556</ele>
        <time>2020-03-09T10:51:41Z</time>
      </trkpt>
      <trkpt lat="45.40835" lon="5.2866">
        <ele>560</ele>
        <time>2020-03-09T10:52:07Z</time>
      </trkpt>
      <trkpt lat="45.40813" lon="5.28786">
        <ele>567</ele>
        <time>2020-03-09T10:53:20Z</time>
      </trkpt>
      <trkpt lat="45.4081" lon="5.28843">
        <ele>570</ele>
        <time>2020-03-09T10:53:52Z</time>
      </trkpt>
      <trkpt lat="45.40808" lon="5.2892">
        <ele>572</ele>
        <time>2020-03-09T10:54:35Z</time>
      </trkpt>
      <trkpt lat="45.40811" lon="5.28967">
        <ele>572</ele>
        <time>2020-03-09T10:55:02Z</time>
      </trkpt>
      <trkpt lat="45.40811" lon="5.28998">
        <ele>572</ele>
        <time>2020-03-09T10:55:19Z</time>
      </trkpt>
      <trkpt lat="45.40803" lon="5.2905">
        <ele>573</ele>
        <time>2020-03-09T10:55:49Z</time>
      </trkpt>
      <trkpt lat="45.408" lon="5.29114">
        <ele>575</ele>
        <time>2020-03-09T10:56:25Z</time>
      </trkpt>
      <trkpt lat="45.40793" lon="5.29127">
        <ele>575</ele>
        <time>2020-03-09T10:56:34Z</time>
      </trkpt>
      <trkpt lat="45.40831" lon="5.29141">
        <ele>579</ele>
        <time>2020-03-09T10:57:06Z</time>
      </trkpt>
      <trkpt lat="45.40913" lon="5.29081">
        <ele>584</ele>
        <time>2020-03-09T10:58:19Z</time>
      </trkpt>
      <trkpt lat="45.40927" lon="5.29083">
        <ele>586</ele>
        <time>2020-03-09T10:58:31Z</time>
      </trkpt>
      <trkpt lat="45.41019" lon="5.29061">
        <ele>595</ele>
        <time>2020-03-09T10:59:45Z</time>
      </trkpt>
      <trkpt lat="45.41036" lon="5.29061">
        <ele>596</ele>
        <time>2020-03-09T10:59:59Z</time>
      </trkpt>
      <trkpt lat="45.41057" lon="5.29071">
        <ele>599</ele>
        <time>2020-03-09T11:00:17Z</time>
      </trkpt>
      <trkpt lat="45.41231" lon="5.29394">
        <ele>603</ele>
        <time>2020-03-09T11:04:06Z</time>
      </trkpt>
      <trkpt lat="45.41199" lon="5.2941">
        <ele>606</ele>
        <time>2020-03-09T11:04:33Z</time>
      </trkpt>
      <trkpt lat="45.41167" lon="5.2943">
        <ele>610</ele>
        <time>2020-03-09T11:05:01Z</time>
      </trkpt>
      <trkpt lat="45.41118" lon="5.2945">
        <ele>609</ele>
        <time>2020-03-09T11:05:41Z</time>
      </trkpt>
      <trkpt lat="45.41102" lon="5.29475">
        <ele>609</ele>
        <time>2020-03-09T11:06:01Z</time>
      </trkpt>
      <trkpt lat="45.411" lon="5.2949">
        <ele>610</ele>
        <time>2020-03-09T11:06:09Z</time>
      </trkpt>
      <trkpt lat="45.41139" lon="5.29491">
        <ele>612</ele>
        <time>2020-03-09T11:06:40Z</time>
      </trkpt>
      <trkpt lat="45.4117" lon="5.29496">
        <ele>614</ele>
        <time>2020-03-09T11:07:05Z</time>
      </trkpt>
      <trkpt lat="45.41209" lon="5.29505">
        <ele>614</ele>
        <time>2020-03-09T11:07:37Z</time>
      </trkpt>
      <trkpt lat="45.41268" lon="5.29504">
        <ele>614</ele>
        <time>2020-03-09T11:08:24Z</time>
      </trkpt>
      <trkpt lat="45.41288" lon="5.29503">
        <ele>614</ele>
        <time>2020-03-09T11:08:40Z</time>
      </trkpt>
      <trkpt lat="45.41286" lon="5.29503">
        <ele>614</ele>
        <time>2020-03-09T11:08:42Z</time>
      </trkpt>
      <trkpt lat="45.41293" lon="5.29497">
        <ele>614</ele>
        <time>2020-03-09T11:08:48Z</time>
      </trkpt>
      <trkpt lat="45.41323" lon="5.29485">
        <ele>613</ele>
        <time>2020-03-09T11:09:13Z</time>
      </trkpt>
      <trkpt lat="45.41369" lon="5.29427">
        <ele>611</ele>
        <time>2020-03-09T11:10:02Z</time>
      </trkpt>
      <trkpt lat="45.4141" lon="5.29361">
        <ele>610</ele>
        <time>2020-03-09T11:10:52Z</time>
      </trkpt>
      <trkpt lat="45.41428" lon="5.29341">
        <ele>611</ele>
        <time>2020-03-09T11:11:10Z</time>
      </trkpt>
      <trkpt lat="45.41473" lon="5.29328">
        <ele>618</ele>
        <time>2020-03-09T11:11:47Z</time>
      </trkpt>
      <trkpt lat="45.41513" lon="5.29296">
        <ele>620</ele>
        <time>2020-03-09T11:12:24Z</time>
      </trkpt>
      <trkpt lat="45.41542" lon="5.29257">
        <ele>618</ele>
        <time>2020-03-09T11:12:56Z</time>
      </trkpt>
      <trkpt lat="45.41581" lon="5.29194">
        <ele>615</ele>
        <time>2020-03-09T11:13:43Z</time>
      </trkpt>
      <trkpt lat="45.41579" lon="5.29192">
        <ele>615</ele>
        <time>2020-03-09T11:13:45Z</time>
      </trkpt>
      <trkpt lat="45.4164" lon="5.29078">
        <ele>610</ele>
        <time>2020-03-09T11:15:05Z</time>
      </trkpt>
      <trkpt lat="45.4164" lon="5.29078">
        <ele>610</ele>
        <time>2020-03-09T11:15:05Z</time>
      </trkpt>
      <trkpt lat="45.41527" lon="5.28912">
        <ele>598</ele>
        <time>2020-03-09T11:17:15Z</time>
      </trkpt>
      <trkpt lat="45.41527" lon="5.28912">
        <ele>598</ele>
        <time>2020-03-09T11:17:15Z</time>
      </trkpt>
      <trkpt lat="45.41576" lon="5.28791">
        <ele>597</ele>
        <time>2020-03-09T11:18:34Z</time>
      </trkpt>
      <trkpt lat="45.41576" lon="5.28791">
        <ele>597</ele>
        <time>2020-03-09T11:18:34Z</time>
      </trkpt>
      <trkpt lat="45.4163" lon="5.28665">
        <ele>594</ele>
        <time>2020-03-09T11:19:57Z</time>
      </trkpt>
      <trkpt lat="45.4163" lon="5.28665">
        <ele>594</ele>
        <time>2020-03-09T11:19:57Z</time>
      </trkpt>
      <trkpt lat="45.41642" lon="5.28589">
        <ele>589</ele>
        <time>2020-03-09T11:20:41Z</time>
      </trkpt>
      <trkpt lat="45.41642" lon="5.28589">
        <ele>589</ele>
        <time>2020-03-09T11:20:41Z</time>
      </trkpt>
      <trkpt lat="45.4164" lon="5.28356">
        <ele>575</ele>
        <time>2020-03-09T11:22:52Z</time>
      </trkpt>
      <trkpt lat="45.4164" lon="5.28356">
        <ele>575</ele>
        <time>2020-03-09T11:22:52Z</time>
      </trkpt>
      <trkpt lat="45.41796" lon="5.28385">
        <ele>559</ele>
        <time>2020-03-09T11:24:58Z</time>
      </trkpt>
      <trkpt lat="45.41796" lon="5.28385">
        <ele>559</ele>
        <time>2020-03-09T11:24:58Z</time>
      </trkpt>
      <trkpt lat="45.41826" lon="5.28486">
        <ele>557</ele>
        <time>2020-03-09T11:25:59Z</time>
      </trkpt>
      <trkpt lat="45.41826" lon="5.28486">
        <ele>557</ele>
        <time>2020-03-09T11:25:59Z</time>
      </trkpt>
      <trkpt lat="45.41912" lon="5.28558">
        <ele>551</ele>
        <time>2020-03-09T11:27:19Z</time>
      </trkpt>
      <trkpt lat="45.41912" lon="5.28558">
        <ele>551</ele>
        <time>2020-03-09T11:27:19Z</time>
      </trkpt>
      <trkpt lat="45.42018" lon="5.28548">
        <ele>526</ele>
        <time>2020-03-09T11:28:44Z</time>
      </trkpt>
      <trkpt lat="45.42018" lon="5.28548">
        <ele>526</ele>
        <time>2020-03-09T11:28:44Z</time>
      </trkpt>
      <trkpt lat="45.42048" lon="5.28578">
        <ele>521</ele>
        <time>2020-03-09T11:29:14Z</time>
      </trkpt>
      <trkpt lat="45.42048" lon="5.28578">
        <ele>521</ele>
        <time>2020-03-09T11:29:14Z</time>
      </trkpt>
      <trkpt lat="45.42041" lon="5.2864">
        <ele>519</ele>
        <time>2020-03-09T11:29:49Z</time>
      </trkpt>
      <trkpt lat="45.42041" lon="5.2864">
        <ele>519</ele>
        <time>2020-03-09T11:29:49Z</time>
      </trkpt>
      <trkpt lat="45.41936" lon="5.28733">
        <ele>543</ele>
        <time>2020-03-09T11:31:28Z</time>
      </trkpt>
      <trkpt lat="45.41936" lon="5.28733">
        <ele>543</ele>
        <time>2020-03-09T11:31:28Z</time>
      </trkpt>
      <trkpt lat="45.42089" lon="5.28751">
        <ele>512</ele>
        <time>2020-03-09T11:33:31Z</time>
      </trkpt>
      <trkpt lat="45.42089" lon="5.28751">
        <ele>512</ele>
        <time>2020-03-09T11:33:31Z</time>
      </trkpt>
      <trkpt lat="45.42188" lon="5.28852">
        <ele>490</ele>
        <time>2020-03-09T11:35:08Z</time>
      </trkpt>
      <trkpt lat="45.42188" lon="5.28852">
        <ele>490</ele>
        <time>2020-03-09T11:35:08Z</time>
      </trkpt>
      <trkpt lat="45.42225" lon="5.28923">
        <ele>479</ele>
        <time>2020-03-09T11:35:58Z</time>
      </trkpt>
      <trkpt lat="45.42225" lon="5.28923">
        <ele>479</ele>
        <time>2020-03-09T11:35:58Z</time>
      </trkpt>
      <trkpt lat="45.42262" lon="5.29076">
        <ele>477</ele>
        <time>2020-03-09T11:37:29Z</time>
      </trkpt>
      <trkpt lat="45.42377" lon="5.29049">
        <ele>459</ele>
        <time>2020-03-09T11:39:02Z</time>
      </trkpt>
      <trkpt lat="45.42399" lon="5.2918">
        <ele>460</ele>
        <time>2020-03-09T11:40:18Z</time>
      </trkpt>
      <trkpt lat="45.42403" lon="5.29405">
        <ele>461</ele>
        <time>2020-03-09T11:42:25Z</time>
      </trkpt>
      <trkpt lat="45.42399" lon="5.29431">
        <ele>462</ele>
        <time>2020-03-09T11:42:40Z</time>
      </trkpt>
      <trkpt lat="45.42369" lon="5.29573">
        <ele>463</ele>
        <time>2020-03-09T11:44:03Z</time>
      </trkpt>
      <trkpt lat="45.42344" lon="5.29716">
        <ele>463</ele>
        <time>2020-03-09T11:45:26Z</time>
      </trkpt>
      <trkpt lat="45.42294" lon="5.29911">
        <ele>465</ele>
        <time>2020-03-09T11:47:22Z</time>
      </trkpt>
      <trkpt lat="45.42275" lon="5.29963">
        <ele>467</ele>
        <time>2020-03-09T11:47:55Z</time>
      </trkpt>
      <trkpt lat="45.4223" lon="5.3012">
        <ele>470</ele>
        <time>2020-03-09T11:49:31Z</time>
      </trkpt>
      <trkpt lat="45.42217" lon="5.30195">
        <ele>473</ele>
        <time>2020-03-09T11:50:14Z</time>
      </trkpt>
      <trkpt lat="45.42179" lon="5.30169">
        <ele>477</ele>
        <time>2020-03-09T11:50:48Z</time>
      </trkpt>
      <trkpt lat="45.42138" lon="5.30151">
        <ele>479</ele>
        <time>2020-03-09T11:51:22Z</time>
      </trkpt>
      <trkpt lat="45.42102" lon="5.30147">
        <ele>482</ele>
        <time>2020-03-09T11:51:51Z</time>
      </trkpt>
      <trkpt lat="45.42023" lon="5.30174">
        <ele>484</ele>
        <time>2020-03-09T11:52:56Z</time>
      </trkpt>
      <trkpt lat="45.41995" lon="5.30185">
        <ele>486</ele>
        <time>2020-03-09T11:53:19Z</time>
      </trkpt>
      <trkpt lat="45.41967" lon="5.30203">
        <ele>490</ele>
        <time>2020-03-09T11:53:44Z</time>
      </trkpt>
      <trkpt lat="45.41915" lon="5.30245">
        <ele>490</ele>
        <time>2020-03-09T11:54:32Z</time>
      </trkpt>
      <trkpt lat="45.41916" lon="5.30247">
        <ele>490</ele>
        <time>2020-03-09T11:54:33Z</time>
      </trkpt>
      <trkpt lat="45.41873" lon="5.30175">
        <ele>497</ele>
        <time>2020-03-09T11:55:26Z</time>
      </trkpt>
      <trkpt lat="45.41873" lon="5.30175">
        <ele>497</ele>
        <time>2020-03-09T11:55:26Z</time>
      </trkpt>
      <trkpt lat="45.41831" lon="5.30132">
        <ele>511</ele>
        <time>2020-03-09T11:56:08Z</time>
      </trkpt>
      <trkpt lat="45.41831" lon="5.30132">
        <ele>511</ele>
        <time>2020-03-09T11:56:08Z</time>
      </trkpt>
      <trkpt lat="45.41689" lon="5.3018">
        <ele>544</ele>
        <time>2020-03-09T11:58:05Z</time>
      </trkpt>
      <trkpt lat="45.41689" lon="5.3018">
        <ele>544</ele>
        <time>2020-03-09T11:58:05Z</time>
      </trkpt>
      <trkpt lat="45.41585" lon="5.30139">
        <ele>565</ele>
        <time>2020-03-09T11:59:31Z</time>
      </trkpt>
      <trkpt lat="45.41585" lon="5.30139">
        <ele>565</ele>
        <time>2020-03-09T11:59:31Z</time>
      </trkpt>
      <trkpt lat="45.41562" lon="5.30061">
        <ele>575</ele>
        <time>2020-03-09T12:00:19Z</time>
      </trkpt>
      <trkpt lat="45.41562" lon="5.30061">
        <ele>575</ele>
        <time>2020-03-09T12:00:19Z</time>
      </trkpt>
      <trkpt lat="45.41514" lon="5.29993">
        <ele>589</ele>
        <time>2020-03-09T12:01:13Z</time>
      </trkpt>
      <trkpt lat="45.41514" lon="5.29993">
        <ele>589</ele>
        <time>2020-03-09T12:01:13Z</time>
      </trkpt>
      <trkpt lat="45.41418" lon="5.29854">
        <ele>617</ele>
        <time>2020-03-09T12:03:02Z</time>
      </trkpt>
      <trkpt lat="45.41418" lon="5.29854">
        <ele>617</ele>
        <time>2020-03-09T12:03:02Z</time>
      </trkpt>
      <trkpt lat="45.41422" lon="5.29758">
        <ele>621</ele>
        <time>2020-03-09T12:03:56Z</time>
      </trkpt>
      <trkpt lat="45.41422" lon="5.29758">
        <ele>621</ele>
        <time>2020-03-09T12:03:56Z</time>
      </trkpt>
      <trkpt lat="45.41369" lon="5.29576">
        <ele>621</ele>
        <time>2020-03-09T12:05:47Z</time>
      </trkpt>
      <trkpt lat="45.41369" lon="5.29576">
        <ele>621</ele>
        <time>2020-03-09T12:05:47Z</time>
      </trkpt>
      <trkpt lat="45.41329" lon="5.29515">
        <ele>615</ele>
        <time>2020-03-09T12:06:34Z</time>
      </trkpt>
      <trkpt lat="45.41329" lon="5.2951">
        <ele>615</ele>
        <time>2020-03-09T12:06:37Z</time>
      </trkpt>
      <trkpt lat="45.41286" lon="5.29503">
        <ele>614</ele>
        <time>2020-03-09T12:07:11Z</time>
      </trkpt>
      <trkpt lat="45.41209" lon="5.29505">
        <ele>614</ele>
        <time>2020-03-09T12:08:13Z</time>
      </trkpt>
      <trkpt lat="45.4117" lon="5.29496">
        <ele>614</ele>
        <time>2020-03-09T12:08:45Z</time>
      </trkpt>
      <trkpt lat="45.41139" lon="5.29491">
        <ele>612</ele>
        <time>2020-03-09T12:09:10Z</time>
      </trkpt>
      <trkpt lat="45.411" lon="5.2949">
        <ele>610</ele>
        <time>2020-03-09T12:09:41Z</time>
      </trkpt>
      <trkpt lat="45.41018" lon="5.29491">
        <ele>607</ele>
        <time>2020-03-09T12:10:47Z</time>
      </trkpt>
      <trkpt lat="45.40976" lon="5.29504">
        <ele>605</ele>
        <time>2020-03-09T12:11:21Z</time>
      </trkpt>
      <trkpt lat="45.40889" lon="5.29552">
        <ele>600</ele>
        <time>2020-03-09T12:12:36Z</time>
      </trkpt>
      <trkpt lat="45.40848" lon="5.29562">
        <ele>598</ele>
        <time>2020-03-09T12:13:09Z</time>
      </trkpt>
      <trkpt lat="45.40821" lon="5.29546">
        <ele>597</ele>
        <time>2020-03-09T12:13:32Z</time>
      </trkpt>
      <trkpt lat="45.40797" lon="5.29536">
        <ele>598</ele>
        <time>2020-03-09T12:13:53Z</time>
      </trkpt>
      <trkpt lat="45.40743" lon="5.29528">
        <ele>599</ele>
        <time>2020-03-09T12:14:36Z</time>
      </trkpt>
      <trkpt lat="45.40738" lon="5.29527">
        <ele>599</ele>
        <time>2020-03-09T12:14:40Z</time>
      </trkpt>
      <trkpt lat="45.40736" lon="5.29573">
        <ele>599</ele>
        <time>2020-03-09T12:15:06Z</time>
      </trkpt>
      <trkpt lat="45.40725" lon="5.29611">
        <ele>599</ele>
        <time>2020-03-09T12:15:29Z</time>
      </trkpt>
      <trkpt lat="45.40702" lon="5.29664">
        <ele>601</ele>
        <time>2020-03-09T12:16:04Z</time>
      </trkpt>
      <trkpt lat="45.4068" lon="5.29751">
        <ele>608</ele>
        <time>2020-03-09T12:16:56Z</time>
      </trkpt>
      <trkpt lat="45.40653" lon="5.29792">
        <ele>609</ele>
        <time>2020-03-09T12:17:28Z</time>
      </trkpt>
      <trkpt lat="45.40643" lon="5.29833">
        <ele>610</ele>
        <time>2020-03-09T12:17:52Z</time>
      </trkpt>
      <trkpt lat="45.40644" lon="5.29867">
        <ele>611</ele>
        <time>2020-03-09T12:18:11Z</time>
      </trkpt>
      <trkpt lat="45.40664" lon="5.29917">
        <ele>616</ele>
        <time>2020-03-09T12:18:44Z</time>
      </trkpt>
      <trkpt lat="45.40671" lon="5.29958">
        <ele>617</ele>
        <time>2020-03-09T12:19:07Z</time>
      </trkpt>
      <trkpt lat="45.40685" lon="5.30026">
        <ele>618</ele>
        <time>2020-03-09T12:19:47Z</time>
      </trkpt>
      <trkpt lat="45.4069" lon="5.30063">
        <ele>618</ele>
        <time>2020-03-09T12:20:08Z</time>
      </trkpt>
      <trkpt lat="45.40695" lon="5.30162">
        <ele>618</ele>
        <time>2020-03-09T12:21:04Z</time>
      </trkpt>
      <trkpt lat="45.407" lon="5.30216">
        <ele>619</ele>
        <time>2020-03-09T12:21:35Z</time>
      </trkpt>
      <trkpt lat="45.40714" lon="5.30304">
        <ele>619</ele>
        <time>2020-03-09T12:22:25Z</time>
      </trkpt>
      <trkpt lat="45.40731" lon="5.30375">
        <ele>620</ele>
        <time>2020-03-09T12:23:08Z</time>
      </trkpt>
      <trkpt lat="45.40735" lon="5.30564">
        <ele>622</ele>
        <time>2020-03-09T12:24:54Z</time>
      </trkpt>
      <trkpt lat="45.40734" lon="5.30654">
        <ele>621</ele>
        <time>2020-03-09T12:25:44Z</time>
      </trkpt>
      <trkpt lat="45.40736" lon="5.30708">
        <ele>622</ele>
        <time>2020-03-09T12:26:15Z</time>
      </trkpt>
      <trkpt lat="45.40745" lon="5.30823">
        <ele>623</ele>
        <time>2020-03-09T12:27:20Z</time>
      </trkpt>
      <trkpt lat="45.40759" lon="5.30984">
        <ele>623</ele>
        <time>2020-03-09T12:28:51Z</time>
      </trkpt>
      <trkpt lat="45.40767" lon="5.31045">
        <ele>624</ele>
        <time>2020-03-09T12:29:26Z</time>
      </trkpt>
      <trkpt lat="45.40771" lon="5.31065">
        <ele>624</ele>
        <time>2020-03-09T12:29:38Z</time>
      </trkpt>
      <trkpt lat="45.4077" lon="5.31066">
        <ele>624</ele>
        <time>2020-03-09T12:29:39Z</time>
      </trkpt>
      <trkpt lat="45.40837" lon="5.31117">
        <ele>626</ele>
        <time>2020-03-09T12:30:39Z</time>
      </trkpt>
      <trkpt lat="45.40837" lon="5.31117">
        <ele>626</ele>
        <time>2020-03-09T12:30:39Z</time>
      </trkpt>
      <trkpt lat="45.40935" lon="5.31075">
        <ele>626</ele>
        <time>2020-03-09T12:32:01Z</time>
      </trkpt>
      <trkpt lat="45.40935" lon="5.31075">
        <ele>626</ele>
        <time>2020-03-09T12:32:01Z</time>
      </trkpt>
      <trkpt lat="45.41046" lon="5.31081">
        <ele>618</ele>
        <time>2020-03-09T12:33:30Z</time>
      </trkpt>
      <trkpt lat="45.41046" lon="5.31081">
        <ele>618</ele>
        <time>2020-03-09T12:33:30Z</time>
      </trkpt>
      <trkpt lat="45.41161" lon="5.31167">
        <ele>613</ele>
        <time>2020-03-09T12:35:14Z</time>
      </trkpt>
      <trkpt lat="45.41161" lon="5.31167">
        <ele>613</ele>
        <time>2020-03-09T12:35:14Z</time>
      </trkpt>
      <trkpt lat="45.41276" lon="5.30996">
        <ele>606</ele>
        <time>2020-03-09T12:37:27Z</time>
      </trkpt>
      <trkpt lat="45.41276" lon="5.30996">
        <ele>606</ele>
        <time>2020-03-09T12:37:27Z</time>
      </trkpt>
      <trkpt lat="45.41357" lon="5.30973">
        <ele>607</ele>
        <time>2020-03-09T12:38:34Z</time>
      </trkpt>
      <trkpt lat="45.41362" lon="5.30979">
        <ele>608</ele>
        <time>2020-03-09T12:38:39Z</time>
      </trkpt>
      <trkpt lat="45.41356" lon="5.30989">
        <ele>609</ele>
        <time>2020-03-09T12:38:46Z</time>
      </trkpt>
      <trkpt lat="45.41341" lon="5.31021">
        <ele>612</ele>
        <time>2020-03-09T12:39:08Z</time>
      </trkpt>
      <trkpt lat="45.41318" lon="5.31144">
        <ele>618</ele>
        <time>2020-03-09T12:40:19Z</time>
      </trkpt>
      <trkpt lat="45.41298" lon="5.31227">
        <ele>623</ele>
        <time>2020-03-09T12:41:09Z</time>
      </trkpt>
      <trkpt lat="45.412" lon="5.31346">
        <ele>633</ele>
        <time>2020-03-09T12:42:52Z</time>
      </trkpt>
      <trkpt lat="45.41175" lon="5.31403">
        <ele>634</ele>
        <time>2020-03-09T12:43:30Z</time>
      </trkpt>
      <trkpt lat="45.41156" lon="5.31456">
        <ele>637</ele>
        <time>2020-03-09T12:44:03Z</time>
      </trkpt>
      <trkpt lat="45.41063" lon="5.31569">
        <ele>644</ele>
        <time>2020-03-09T12:45:41Z</time>
      </trkpt>
      <trkpt lat="45.41041" lon="5.31609">
        <ele>644</ele>
        <time>2020-03-09T12:46:09Z</time>
      </trkpt>
      <trkpt lat="45.41033" lon="5.31642">
        <ele>644</ele>
        <time>2020-03-09T12:46:29Z</time>
      </trkpt>
      <trkpt lat="45.41025" lon="5.31696">
        <ele>644</ele>
        <time>2020-03-09T12:47:00Z</time>
      </trkpt>
      <trkpt lat="45.41021" lon="5.31709">
        <ele>643</ele>
        <time>2020-03-09T12:47:08Z</time>
      </trkpt>
      <trkpt lat="45.41014" lon="5.31715">
        <ele>642</ele>
        <time>2020-03-09T12:47:15Z</time>
      </trkpt>
      <trkpt lat="45.40989" lon="5.3172">
        <ele>641</ele>
        <time>2020-03-09T12:47:35Z</time>
      </trkpt>
      <trkpt lat="45.40966" lon="5.31728">
        <ele>641</ele>
        <time>2020-03-09T12:47:54Z</time>
      </trkpt>
      <trkpt lat="45.40871" lon="5.31793">
        <ele>638</ele>
        <time>2020-03-09T12:49:18Z</time>
      </trkpt>
      <trkpt lat="45.40867" lon="5.318">
        <ele>638</ele>
        <time>2020-03-09T12:49:23Z</time>
      </trkpt>
      <trkpt lat="45.40849" lon="5.31876">
        <ele>636</ele>
        <time>2020-03-09T12:50:08Z</time>
      </trkpt>
      <trkpt lat="45.4082" lon="5.3197">
        <ele>633</ele>
        <time>2020-03-09T12:51:06Z</time>
      </trkpt>
      <trkpt lat="45.40817" lon="5.31972">
        <ele>633</ele>
        <time>2020-03-09T12:51:09Z</time>
      </trkpt>
      <trkpt lat="45.40794" lon="5.31999">
        <ele>628</ele>
        <time>2020-03-09T12:51:33Z</time>
      </trkpt>
      <trkpt lat="45.40767" lon="5.32025">
        <ele>623</ele>
        <time>2020-03-09T12:51:59Z</time>
      </trkpt>
      <trkpt lat="45.40713" lon="5.32087">
        <ele>607</ele>
        <time>2020-03-09T12:52:54Z</time>
      </trkpt>
      <trkpt lat="45.4068" lon="5.32136">
        <ele>598</ele>
        <time>2020-03-09T12:53:32Z</time>
      </trkpt>
      <trkpt lat="45.40641" lon="5.32199">
        <ele>587</ele>
        <time>2020-03-09T12:54:20Z</time>
      </trkpt>
      <trkpt lat="45.40613" lon="5.32257">
        <ele>580</ele>
        <time>2020-03-09T12:54:59Z</time>
      </trkpt>
      <trkpt lat="45.40595" lon="5.32303">
        <ele>576</ele>
        <time>2020-03-09T12:55:29Z</time>
      </trkpt>
      <trkpt lat="45.40554" lon="5.32359">
        <ele>565</ele>
        <time>2020-03-09T12:56:14Z</time>
      </trkpt>
      <trkpt lat="45.4053" lon="5.32398">
        <ele>558</ele>
        <time>2020-03-09T12:56:43Z</time>
      </trkpt>
      <trkpt lat="45.40508" lon="5.32442">
        <ele>552</ele>
        <time>2020-03-09T12:57:14Z</time>
      </trkpt>
      <trkpt lat="45.40501" lon="5.32465">
        <ele>550</ele>
        <time>2020-03-09T12:57:28Z</time>
      </trkpt>
      <trkpt lat="45.40495" lon="5.32443">
        <ele>549</ele>
        <time>2020-03-09T12:57:41Z</time>
      </trkpt>
      <trkpt lat="45.40489" lon="5.32394">
        <ele>549</ele>
        <time>2020-03-09T12:58:09Z</time>
      </trkpt>
      <trkpt lat="45.40474" lon="5.32311">
        <ele>550</ele>
        <time>2020-03-09T12:58:57Z</time>
      </trkpt>
      <trkpt lat="45.40459" lon="5.3227">
        <ele>548</ele>
        <time>2020-03-09T12:59:23Z</time>
      </trkpt>
      <trkpt lat="45.40427" lon="5.32106">
        <ele>543</ele>
        <time>2020-03-09T13:00:59Z</time>
      </trkpt>
      <trkpt lat="45.40386" lon="5.31965">
        <ele>542</ele>
        <time>2020-03-09T13:02:25Z</time>
      </trkpt>
      <trkpt lat="45.40369" lon="5.31921">
        <ele>540</ele>
        <time>2020-03-09T13:02:53Z</time>
      </trkpt>
      <trkpt lat="45.4036" lon="5.31907">
        <ele>539</ele>
        <time>2020-03-09T13:03:04Z</time>
      </trkpt>
      <trkpt lat="45.40355" lon="5.31887">
        <ele>537</ele>
        <time>2020-03-09T13:03:16Z</time>
      </trkpt>
      <trkpt lat="45.4035" lon="5.31843">
        <ele>535</ele>
        <time>2020-03-09T13:03:41Z</time>
      </trkpt>
      <trkpt lat="45.40349" lon="5.31807">
        <ele>534</ele>
        <time>2020-03-09T13:04:01Z</time>
      </trkpt>
      <trkpt lat="45.40352" lon="5.31775">
        <ele>535</ele>
        <time>2020-03-09T13:04:19Z</time>
      </trkpt>
      <trkpt lat="45.40347" lon="5.31766">
        <ele>534</ele>
        <time>2020-03-09T13:04:25Z</time>
      </trkpt>
      <trkpt lat="45.40329" lon="5.3175">
        <ele>531</ele>
        <time>2020-03-09T13:04:42Z</time>
      </trkpt>
      <trkpt lat="45.40241" lon="5.31687">
        <ele>523</ele>
        <time>2020-03-09T13:06:01Z</time>
      </trkpt>
      <trkpt lat="45.40219" lon="5.31656">
        <ele>521</ele>
        <time>2020-03-09T13:06:26Z</time>
      </trkpt>
      <trkpt lat="45.40184" lon="5.31531">
        <ele>514</ele>
        <time>2020-03-09T13:07:42Z</time>
      </trkpt>
      <trkpt lat="45.40183" lon="5.31505">
        <ele>513</ele>
        <time>2020-03-09T13:07:56Z</time>
      </trkpt>
      <trkpt lat="45.40197" lon="5.31444">
        <ele>511</ele>
        <time>2020-03-09T13:08:32Z</time>
      </trkpt>
      <trkpt lat="45.40207" lon="5.31405">
        <ele>510</ele>
        <time>2020-03-09T13:08:56Z</time>
      </trkpt>
      <trkpt lat="45.40208" lon="5.31383">
        <ele>510</ele>
        <time>2020-03-09T13:09:08Z</time>
      </trkpt>
      <trkpt lat="45.40191" lon="5.31289">
        <ele>505</ele>
        <time>2020-03-09T13:10:03Z</time>
      </trkpt>
      <trkpt lat="45.40161" lon="5.31158">
        <ele>502</ele>
        <time>2020-03-09T13:11:20Z</time>
      </trkpt>
      <trkpt lat="45.40154" lon="5.3115">
        <ele>501</ele>
        <time>2020-03-09T13:11:27Z</time>
      </trkpt>
      <trkpt lat="45.40139" lon="5.31153">
        <ele>499</ele>
        <time>2020-03-09T13:11:40Z</time>
      </trkpt>
      <trkpt lat="45.40106" lon="5.31144">
        <ele>494</ele>
        <time>2020-03-09T13:12:06Z</time>
      </trkpt>
      <trkpt lat="45.39975" lon="5.31093">
        <ele>480</ele>
        <time>2020-03-09T13:13:55Z</time>
      </trkpt>
      <trkpt lat="45.39956" lon="5.31047">
        <ele>478</ele>
        <time>2020-03-09T13:14:25Z</time>
      </trkpt>
      <trkpt lat="45.39954" lon="5.30968">
        <ele>479</ele>
        <time>2020-03-09T13:15:10Z</time>
      </trkpt>
      <trkpt lat="45.39952" lon="5.30969">
        <ele>479</ele>
        <time>2020-03-09T13:15:11Z</time>
      </trkpt>
      <trkpt lat="45.39813" lon="5.30922">
        <ele>461</ele>
        <time>2020-03-09T13:17:06Z</time>
      </trkpt>
      <trkpt lat="45.39813" lon="5.30922">
        <ele>461</ele>
        <time>2020-03-09T13:17:06Z</time>
      </trkpt>
      <trkpt lat="45.39762" lon="5.30866">
        <ele>449</ele>
        <time>2020-03-09T13:17:57Z</time>
      </trkpt>
      <trkpt lat="45.39762" lon="5.30866">
        <ele>449</ele>
        <time>2020-03-09T13:17:57Z</time>
      </trkpt>
      <trkpt lat="45.39719" lon="5.3065">
        <ele>440</ele>
        <time>2020-03-09T13:20:04Z</time>
      </trkpt>
      <trkpt lat="45.39719" lon="5.3065">
        <ele>440</ele>
        <time>2020-03-09T13:20:04Z</time>
      </trkpt>
      <trkpt lat="45.39708" lon="5.30523">
        <ele>437</ele>
        <time>2020-03-09T13:21:15Z</time>
      </trkpt>
      <trkpt lat="45.39708" lon="5.30523">
        <ele>437</ele>
        <time>2020-03-09T13:21:15Z</time>
      </trkpt>
      <trkpt lat="45.39631" lon="5.30487">
        <ele>428</ele>
        <time>2020-03-09T13:22:20Z</time>
      </trkpt>
      <trkpt lat="45.39634" lon="5.30485">
        <ele>428</ele>
        <time>2020-03-09T13:22:23Z</time>
      </trkpt>
      <trkpt lat="45.39631" lon="5.30466">
        <ele>427</ele>
        <time>2020-03-09T13:22:34Z</time>
      </trkpt>
      <trkpt lat="45.3961" lon="5.30386">
        <ele>422</ele>
        <time>2020-03-09T13:23:22Z</time>
      </trkpt>
      <trkpt lat="45.3958" lon="5.30332">
        <ele>420</ele>
        <time>2020-03-09T13:24:01Z</time>
      </trkpt>
      <trkpt lat="45.39547" lon="5.30289">
        <ele>416</ele>
        <time>2020-03-09T13:24:36Z</time>
      </trkpt>
      <trkpt lat="45.39532" lon="5.30287">
        <ele>414</ele>
        <time>2020-03-09T13:24:49Z</time>
      </trkpt>
      <trkpt lat="45.39509" lon="5.30305">
        <ele>412</ele>
        <time>2020-03-09T13:25:10Z</time>
      </trkpt>
      <trkpt lat="45.39484" lon="5.30337">
        <ele>409</ele>
        <time>2020-03-09T13:25:36Z</time>
      </trkpt>
      <trkpt lat="45.39453" lon="5.30366">
        <ele>404</ele>
        <time>2020-03-09T13:26:06Z</time>
      </trkpt>
      <trkpt lat="45.39401" lon="5.30345">
        <ele>397</ele>
        <time>2020-03-09T13:26:49Z</time>
      </trkpt>
      <trkpt lat="45.39385" lon="5.30345">
        <ele>395</ele>
        <time>2020-03-09T13:27:02Z</time>
      </trkpt>
      <trkpt lat="45.39369" lon="5.30358">
        <ele>393</ele>
        <time>2020-03-09T13:27:17Z</time>
      </trkpt>
      <trkpt lat="45.39332" lon="5.30397">
        <ele>389</ele>
        <time>2020-03-09T13:27:54Z</time>
      </trkpt>
      <trkpt lat="45.39298" lon="5.30421">
        <ele>386</ele>
        <time>2020-03-09T13:28:24Z</time>
      </trkpt>
      <trkpt lat="45.39296" lon="5.30415">
        <ele>386</ele>
        <time>2020-03-09T13:28:28Z</time>
      </trkpt>
      <trkpt lat="45.39297" lon="5.30415">
        <ele>386</ele>
        <time>2020-03-09T13:28:29Z</time>
      </trkpt>
      <trkpt lat="45.39245" lon="5.30079">
        <ele>384</ele>
        <time>2020-03-09T13:31:42Z</time>
      </trkpt>
      <trkpt lat="45.39245" lon="5.30079">
        <ele>384</ele>
        <time>2020-03-09T13:31:42Z</time>
      </trkpt>
      <trkpt lat="45.3924" lon="5.29659">
        <ele>383</ele>
        <time>2020-03-09T13:35:38Z</time>
      </trkpt>
    </trkseg>
  </trk>
</gpx>